createdAt,value
2023-05-05T00:03:18.255Z,100508.78
2023-05-05T00:06:48.187Z,100508.62
2023-05-05T00:10:17.640Z,100506.89
2023-05-05T00:13:46.887Z,100517.64
2023-05-05T00:17:16.428Z,100511.39
2023-05-05T00:20:45.674Z,100514.02
2023-05-05T00:24:14.596Z,100512.80
2023-05-05T00:27:44.112Z,100513.67
2023-05-05T00:31:14.294Z,100517.67
2023-05-05T00:34:43.373Z,100521.34
2023-05-05T00:37:12.476Z,100526.56
2023-05-05T00:40:12.143Z,100530.05
2023-05-05T00:43:37.835Z,100528.13
2023-05-05T00:47:05.473Z,100532.31
2023-05-05T00:50:17.434Z,100538.73
2023-05-05T00:53:46.517Z,100546.23
2023-05-05T00:57:05.443Z,100539.45
2023-05-05T01:00:35.425Z,100538.23
2023-05-05T01:04:04.988Z,100538.41
2023-05-05T01:07:32.787Z,100531.98
2023-05-05T01:10:59.396Z,100550.57
2023-05-05T01:14:32.112Z,100551.09
2023-05-05T01:18:04.558Z,100540.14
2023-05-05T01:21:27.942Z,100537.88
2023-05-05T01:25:15.493Z,100534.23
2023-05-05T01:29:02.697Z,100531.44
2023-05-05T01:32:51.403Z,100524.99
2023-05-05T01:36:16.830Z,100525.00
2023-05-05T01:39:46.588Z,100526.40
2023-05-05T01:43:15.800Z,100535.25
2023-05-05T01:46:26.387Z,100542.73
2023-05-05T01:49:38.891Z,100537.34
2023-05-05T01:53:08.128Z,100546.02
2023-05-05T01:56:37.885Z,100548.64
2023-05-05T02:00:07.818Z,100543.23
2023-05-05T02:03:38.100Z,100547.93
2023-05-05T02:06:57.782Z,100547.05
2023-05-05T02:10:30.182Z,100553.66
2023-05-05T02:13:59.671Z,100558.70
2023-05-05T02:17:19.185Z,100554.88
2023-05-05T02:20:48.453Z,100556.27
2023-05-05T02:24:17.980Z,100566.89
2023-05-05T02:27:47.318Z,100562.54
2023-05-05T02:31:08.349Z,100560.81
2023-05-05T02:34:37.649Z,100563.23
2023-05-05T02:38:07.238Z,100572.98
2023-05-05T02:41:36.631Z,100583.77
2023-05-05T02:44:59.659Z,100587.77
2023-05-05T02:48:31.988Z,100590.02
2023-05-05T02:51:41.379Z,100592.80
2023-05-05T02:54:50.747Z,100593.32
2023-05-05T02:57:29.698Z,100593.13
2023-05-05T03:01:12.283Z,100592.76
2023-05-05T03:04:30.267Z,100594.66
2023-05-05T03:08:28.071Z,100599.34
2023-05-05T03:11:48.281Z,100598.96
2023-05-05T03:15:17.674Z,100600.52
2023-05-05T03:18:37.065Z,100599.45
2023-05-05T03:22:06.466Z,100602.38
2023-05-05T03:25:28.503Z,100606.54
2023-05-05T03:28:37.702Z,100614.16
2023-05-05T03:32:08.133Z,100620.05
2023-05-05T03:35:38.297Z,100619.52
2023-05-05T03:38:20.848Z,100629.59
2023-05-05T03:41:44.238Z,100634.43
2023-05-05T03:44:53.552Z,100637.36
2023-05-05T03:47:55.672Z,100638.21
2023-05-05T03:50:52.092Z,100651.19
2023-05-05T03:54:21.635Z,100658.98
2023-05-05T03:57:06.973Z,100662.77
2023-05-05T04:00:36.093Z,100668.30
2023-05-05T04:04:05.259Z,100664.49
2023-05-05T04:07:17.506Z,100662.55
2023-05-05T04:10:47.102Z,100679.35
2023-05-05T04:14:16.685Z,100688.19
2023-05-05T04:16:46.036Z,100676.38
2023-05-05T04:20:05.023Z,100675.16
2023-05-05T04:23:14.186Z,100677.78
2023-05-05T04:25:43.389Z,100683.88
2023-05-05T04:29:13.656Z,100688.57
2023-05-05T04:32:26.224Z,100695.36
2023-05-05T04:35:57.115Z,100704.19
2023-05-05T04:39:11.321Z,100703.48
2023-05-05T04:42:23.527Z,100698.80
2023-05-05T04:45:53.435Z,100697.93
2023-05-05T04:49:22.555Z,100690.69
2023-05-05T04:52:52.774Z,100680.80
2023-05-05T04:56:22.123Z,100679.77
2023-05-05T04:59:51.144Z,100680.14
2023-05-05T05:03:02.051Z,100670.09
2023-05-05T05:10:14.307Z,100659.23
2023-05-05T05:13:36.378Z,100656.45
2023-05-05T05:17:05.821Z,100653.67
2023-05-05T05:20:35.551Z,100654.21
2023-05-05T05:23:54.796Z,100655.62
2023-05-05T05:27:13.790Z,100657.86
2023-05-05T05:30:43.206Z,100650.05
2023-05-05T05:34:12.900Z,100641.38
2023-05-05T05:37:06.083Z,100648.84
2023-05-05T05:40:35.366Z,100651.64
2023-05-05T05:43:10.206Z,100665.35
2023-05-05T05:45:58.167Z,100668.13
2023-05-05T05:48:50.546Z,100670.21
2023-05-05T05:51:50.082Z,100677.49
2023-05-05T05:55:19.094Z,100690.30
2023-05-05T05:58:19.538Z,100696.98
2023-05-05T06:01:48.697Z,100705.97
2023-05-05T06:05:18.027Z,100708.20
2023-05-05T06:08:47.706Z,100716.14
2023-05-05T06:12:06.341Z,100724.98
2023-05-05T06:15:36.730Z,100731.00
2023-05-05T06:19:06.307Z,100732.52
2023-05-05T06:21:58.281Z,100728.34
2023-05-05T06:25:00.936Z,100725.17
2023-05-05T06:28:10.326Z,100722.55
2023-05-05T06:31:40.503Z,100718.52
2023-05-05T06:35:11.432Z,100711.23
2023-05-05T06:38:41.188Z,100710.98
2023-05-05T06:41:51.515Z,100713.55
2023-05-05T06:45:20.788Z,100717.00
2023-05-05T06:48:42.924Z,100712.65
2023-05-05T06:52:12.202Z,100701.69
2023-05-05T06:55:41.797Z,100698.55
2023-05-05T06:59:11.173Z,100689.16
2023-05-05T07:02:40.911Z,100687.41
2023-05-05T07:06:10.429Z,100698.66
2023-05-05T07:08:49.843Z,100692.75
2023-05-05T07:11:22.026Z,100691.55
2023-05-05T07:14:00.384Z,100690.65
2023-05-05T07:17:29.722Z,100691.69
2023-05-05T07:20:18.532Z,100684.40
2023-05-05T07:23:18.102Z,100689.61
2023-05-05T07:26:47.600Z,100690.65
2023-05-05T07:30:11.171Z,100693.25
2023-05-05T07:33:43.444Z,100687.91
2023-05-05T07:37:11.882Z,100696.58
2023-05-05T07:40:41.407Z,100695.90
2023-05-05T07:43:44.632Z,100696.61
2023-05-05T07:47:14.210Z,100696.79
2023-05-05T07:50:43.386Z,100699.79
2023-05-05T07:54:12.489Z,100701.91
2023-05-05T07:57:05.106Z,100706.80
2023-05-05T08:00:34.291Z,100707.00
2023-05-05T08:03:28.401Z,100708.94
2023-05-05T08:06:48.193Z,100708.25
2023-05-05T08:10:17.621Z,100703.92
2023-05-05T08:13:04.244Z,100694.42
2023-05-05T08:16:34.085Z,100682.80
2023-05-05T08:19:28.770Z,100681.42
2023-05-05T08:22:42.152Z,100676.05
2023-05-05T08:26:11.573Z,100676.02
2023-05-05T08:29:20.840Z,100672.90
2023-05-05T08:32:39.395Z,100671.52
2023-05-05T08:35:42.886Z,100667.17
2023-05-05T08:39:12.266Z,100668.23
2023-05-05T08:42:01.739Z,100676.06
2023-05-05T08:45:11.922Z,100679.89
2023-05-05T08:48:24.724Z,100680.93
2023-05-05T08:51:54.101Z,100683.52
2023-05-05T08:55:23.136Z,100686.65
2023-05-05T08:58:52.648Z,100692.54
2023-05-05T09:02:15.383Z,100690.80
2023-05-05T09:05:44.853Z,100688.70
2023-05-05T09:09:14.170Z,100680.86
2023-05-05T09:12:43.789Z,100670.96
2023-05-05T09:16:05.329Z,100666.08
2023-05-05T09:19:34.635Z,100663.94
2023-05-05T09:23:04.289Z,100667.70
2023-05-05T09:25:54.582Z,100673.38
2023-05-05T09:29:24.032Z,100672.80
2023-05-05T09:33:02.338Z,100671.38
2023-05-05T09:36:34.231Z,100666.11
2023-05-05T09:40:06.540Z,100665.52
2023-05-05T09:43:29.350Z,100661.48
2023-05-05T09:47:21.932Z,100661.28
2023-05-05T09:51:00.680Z,100661.39
2023-05-05T09:54:30.047Z,100658.56
2023-05-05T09:56:59.550Z,100657.97
2023-05-05T10:00:30.354Z,100650.99
2023-05-05T10:03:59.303Z,100651.81
2023-05-05T10:07:28.819Z,100654.05
2023-05-05T10:10:57.800Z,100652.25
2023-05-05T10:14:27.118Z,100651.36
2023-05-05T10:18:06.990Z,100655.82
2023-05-05T10:20:52.816Z,100656.13
2023-05-05T10:24:22.266Z,100661.23
2023-05-05T10:27:34.087Z,100666.36
2023-05-05T10:31:20.036Z,100673.44
2023-05-05T10:35:03.173Z,100675.83
2023-05-05T10:38:32.609Z,100680.34
2023-05-05T10:42:04.928Z,100686.23
2023-05-05T10:44:57.574Z,100688.33
2023-05-05T10:47:29.795Z,100690.43
2023-05-05T10:50:44.901Z,100689.89
2023-05-05T10:53:43.074Z,100688.34
2023-05-05T10:56:32.530Z,100688.80
2023-05-05T10:59:41.749Z,100694.88
2023-05-05T11:02:32.469Z,100695.70
2023-05-05T11:05:28.144Z,100696.45
2023-05-05T11:09:06.334Z,100693.50
2023-05-05T11:12:23.424Z,100698.48
2023-05-05T11:16:04.810Z,100704.70
2023-05-05T11:19:10.886Z,100706.08
2023-05-05T11:22:02.640Z,100710.27
2023-05-05T11:24:37.952Z,100710.95
2023-05-05T11:27:07.322Z,100715.63
2023-05-05T11:30:36.281Z,100717.55
2023-05-05T11:33:50.029Z,100716.19
2023-05-05T11:36:30.697Z,100720.89
2023-05-05T11:39:38.912Z,100720.39
2023-05-05T11:42:53.447Z,100725.10
2023-05-05T11:46:23.888Z,100728.08
2023-05-05T11:49:53.484Z,100726.23
2023-05-05T11:52:35.885Z,100726.95
2023-05-05T11:55:40.430Z,100726.60
2023-05-05T11:58:42.649Z,100724.84
2023-05-05T12:01:57.616Z,100725.87
2023-05-05T12:04:58.255Z,100722.59
2023-05-05T12:08:22.198Z,100724.86
2023-05-05T12:11:32.352Z,100727.64
2023-05-05T12:15:13.880Z,100724.71
2023-05-05T12:18:14.005Z,100724.20
2023-05-05T12:21:43.408Z,100721.77
2023-05-05T12:25:06.732Z,100712.38
2023-05-05T12:28:35.999Z,100714.05
2023-05-05T12:31:55.912Z,100719.21
2023-05-05T12:35:19.071Z,100723.34
2023-05-05T12:37:51.690Z,100723.98
2023-05-05T12:41:09.138Z,100724.83
2023-05-05T12:44:27.504Z,100727.70
2023-05-05T12:47:02.569Z,100732.18
2023-05-05T12:49:35.053Z,100736.65
2023-05-05T12:52:25.260Z,100739.92
2023-05-05T12:55:38.301Z,100744.91
2023-05-05T12:58:57.106Z,100748.52
2023-05-05T13:01:40.621Z,100747.42
2023-05-05T13:05:04.511Z,100748.45
2023-05-05T13:08:34.232Z,100748.59
2023-05-05T13:11:56.076Z,100751.15
2023-05-05T13:15:25.354Z,100749.38
2023-05-05T13:18:54.933Z,100747.61
2023-05-05T13:22:24.046Z,100748.80
2023-05-05T13:25:43.418Z,100750.69
2023-05-05T13:29:14.320Z,100751.73
2023-05-05T13:32:43.898Z,100746.18
2023-05-05T13:36:12.964Z,100751.06
2023-05-05T13:39:33.348Z,100752.11
2023-05-05T13:43:03.801Z,100752.80
2023-05-05T13:46:20.200Z,100756.41
2023-05-05T13:49:49.589Z,100755.36
2023-05-05T13:53:10.486Z,100755.21
2023-05-05T13:56:40.452Z,100751.13
2023-05-05T13:59:50.217Z,100750.13
2023-05-05T14:03:00.004Z,100752.79
2023-05-05T14:06:29.299Z,100751.84
2023-05-05T14:09:58.915Z,100756.42
2023-05-05T14:13:17.526Z,100755.31
2023-05-05T14:16:49.432Z,100755.53
2023-05-05T14:20:20.461Z,100758.04
2023-05-05T14:23:50.017Z,100762.25
2023-05-05T14:26:59.457Z,100759.52
2023-05-05T14:30:16.891Z,100766.50
2023-05-05T14:33:26.601Z,100772.64
2023-05-05T14:36:25.780Z,100770.62
2023-05-05T14:39:28.994Z,100772.58
2023-05-05T14:42:57.539Z,100775.38
2023-05-05T14:46:09.297Z,100775.94
2023-05-05T14:49:38.603Z,100775.27
2023-05-05T14:52:47.940Z,100777.87
2023-05-05T14:55:45.925Z,100793.13
2023-05-05T14:58:38.666Z,100785.90
2023-05-05T15:02:07.955Z,100786.61
2023-05-05T15:05:17.520Z,100786.45
2023-05-05T15:08:46.858Z,100786.13
2023-05-05T15:12:16.291Z,100787.52
2023-05-05T15:15:10.237Z,100792.38
2023-05-05T15:18:09.685Z,100796.21
2023-05-05T15:21:39.179Z,100800.04
2023-05-05T15:24:29.651Z,100802.11
2023-05-05T15:27:19.572Z,100801.77
2023-05-05T15:30:49.514Z,100807.11
2023-05-05T15:33:52.457Z,100809.67
2023-05-05T15:36:41.906Z,100811.89
2023-05-05T15:39:56.471Z,100812.21
2023-05-05T15:43:23.589Z,100814.59
2023-05-05T15:46:19.489Z,100812.27
2023-05-05T15:49:39.459Z,100809.96
2023-05-05T15:52:58.279Z,100808.19
2023-05-05T15:56:26.527Z,100808.17
2023-05-05T15:59:55.837Z,100810.40
2023-05-05T16:03:25.297Z,100808.65
2023-05-05T16:06:56.151Z,100807.05
2023-05-05T16:09:48.567Z,100806.70
2023-05-05T16:13:17.811Z,100804.42
2023-05-05T16:16:48.711Z,100809.44
2023-05-05T16:20:18.593Z,100820.32
2023-05-05T16:23:28.226Z,100822.92
2023-05-05T16:26:22.083Z,100830.70
2023-05-05T16:29:17.864Z,100832.05
2023-05-05T16:32:37.344Z,100834.82
2023-05-05T16:35:37.181Z,100839.49
2023-05-05T16:38:46.535Z,100840.02
2023-05-05T16:42:15.645Z,100844.70
2023-05-05T16:45:27.146Z,100843.48
2023-05-05T16:48:36.163Z,100843.27
2023-05-05T16:52:05.180Z,100843.59
2023-05-05T16:55:34.387Z,100840.76
2023-05-05T16:59:03.839Z,100849.90
2023-05-05T17:02:15.874Z,100853.71
2023-05-05T17:05:47.214Z,100852.14
2023-05-05T17:09:18.480Z,100854.63
2023-05-05T17:12:48.689Z,100850.54
2023-05-05T17:16:18.370Z,100851.83
2023-05-05T17:19:48.225Z,100852.05
2023-05-05T17:23:17.858Z,100860.63
2023-05-05T17:26:27.511Z,100863.11
2023-05-05T17:29:57.498Z,100867.50
2023-05-05T17:33:26.858Z,100871.88
2023-05-05T17:36:56.026Z,100875.76
2023-05-05T17:40:27.169Z,100876.84
2023-05-05T17:43:56.510Z,100879.98
2023-05-05T17:47:27.389Z,100882.45
2023-05-05T17:50:56.803Z,100886.63
2023-05-05T17:54:25.995Z,100889.42
2023-05-05T17:57:55.042Z,100885.63
2023-05-05T18:01:24.700Z,100885.13
2023-05-05T18:04:36.735Z,100886.16
2023-05-05T18:07:59.257Z,100893.27
2023-05-05T18:11:28.106Z,100891.58
2023-05-05T18:14:57.615Z,100886.38
2023-05-05T18:18:28.400Z,100893.64
2023-05-05T18:21:58.420Z,100891.95
2023-05-05T18:25:27.877Z,100897.17
2023-05-05T18:28:57.081Z,100906.54
2023-05-05T18:32:15.476Z,100915.73
2023-05-05T18:35:20.256Z,100919.05
2023-05-05T18:38:33.262Z,100919.77
2023-05-05T18:41:51.441Z,100917.90
2023-05-05T18:45:21.227Z,100916.02
2023-05-05T18:48:50.290Z,100920.38
2023-05-05T18:52:19.910Z,100921.98
2023-05-05T18:55:49.355Z,100915.71
2023-05-05T18:59:16.968Z,100916.21
2023-05-05T19:02:46.517Z,100910.80
2023-05-05T19:05:57.992Z,100920.98
2023-05-05T19:09:27.672Z,100927.94
2023-05-05T19:12:47.473Z,100937.46
2023-05-05T19:16:17.737Z,100937.78
2023-05-05T19:19:37.110Z,100946.02
2023-05-05T19:23:06.157Z,100946.67
2023-05-05T19:26:35.481Z,100947.30
2023-05-05T19:30:05.247Z,100949.34
2023-05-05T19:33:34.636Z,100949.32
2023-05-05T19:37:03.936Z,100953.99
2023-05-05T19:40:33.270Z,100955.38
2023-05-05T19:43:10.662Z,100957.60
2023-05-05T19:46:41.276Z,100960.36
2023-05-05T19:50:10.709Z,100963.83
2023-05-05T19:53:39.891Z,100968.65
2023-05-05T19:57:01.605Z,100979.89
2023-05-05T20:00:31.299Z,100980.21
2023-05-05T20:04:00.664Z,100985.08
2023-05-05T20:07:29.787Z,100990.63
2023-05-05T20:10:48.255Z,100994.61
2023-05-05T20:14:16.974Z,100991.48
2023-05-05T20:17:46.948Z,100992.39
2023-05-05T20:21:19.174Z,100991.73
2023-05-05T20:24:48.412Z,100994.35
2023-05-05T20:28:18.604Z,100995.24
2023-05-05T20:31:47.605Z,101000.82
2023-05-05T20:35:09.819Z,101005.55
2023-05-05T20:38:21.624Z,101004.91
2023-05-05T20:41:50.861Z,101012.43
2023-05-05T20:45:20.213Z,101016.11
2023-05-05T20:48:49.515Z,101019.64
2023-05-05T20:52:19.016Z,101017.93
2023-05-05T20:55:48.298Z,101023.71
2023-05-05T20:59:18.950Z,101025.34
2023-05-05T21:02:41.309Z,101031.84
2023-05-05T21:06:00.235Z,101037.60
2023-05-05T21:09:29.802Z,101040.61
2023-05-05T21:13:00.159Z,101039.81
2023-05-05T21:16:20.988Z,101039.86
2023-05-05T21:19:50.480Z,101045.98
2023-05-05T21:23:19.650Z,101045.34
2023-05-05T21:26:40.166Z,101047.88
2023-05-05T21:29:29.770Z,101055.55
2023-05-05T21:32:59.363Z,101058.19
2023-05-05T21:36:08.145Z,101059.95
2023-05-05T21:39:38.047Z,101066.25
2023-05-05T21:43:07.611Z,101074.09
2023-05-05T21:46:39.760Z,101075.35
2023-05-05T21:50:16.755Z,101080.11
2023-05-05T21:53:45.794Z,101085.54
2023-05-05T21:56:59.072Z,101084.85
2023-05-05T22:00:28.339Z,101087.66
2023-05-05T22:03:51.448Z,101091.66
2023-05-05T22:06:36.988Z,101096.48
2023-05-05T22:10:06.766Z,101095.05
2023-05-05T22:13:36.198Z,101087.73
2023-05-05T22:17:06.269Z,101086.48
2023-05-05T22:20:35.603Z,101088.19
2023-05-05T22:24:04.797Z,101093.55
2023-05-05T22:27:34.054Z,101098.55
2023-05-05T22:30:30.555Z,101097.31
2023-05-05T22:33:59.685Z,101099.52
2023-05-05T22:37:29.309Z,101096.90
2023-05-05T22:40:59.124Z,101097.39
2023-05-05T22:44:18.699Z,101095.30
2023-05-05T22:47:40.263Z,101098.58
2023-05-05T22:50:18.882Z,101101.17
2023-05-05T22:53:08.894Z,101102.56
2023-05-05T22:56:07.679Z,101103.80
2023-05-05T22:58:40.305Z,101099.29
2023-05-05T23:01:39.687Z,101100.00
2023-05-05T23:05:09.019Z,101098.42
2023-05-05T23:07:58.641Z,101099.64
2023-05-05T23:11:12.072Z,101095.81
2023-05-05T23:13:41.087Z,101098.27
2023-05-05T23:17:01.516Z,101100.21
2023-05-05T23:19:37.136Z,101100.23
2023-05-05T23:22:48.825Z,101100.73
2023-05-05T23:25:23.661Z,101100.06
2023-05-05T23:28:45.477Z,101104.23
2023-05-05T23:31:56.493Z,101108.02
2023-05-05T23:34:39.998Z,101108.37
2023-05-05T23:37:08.964Z,101111.86
2023-05-05T23:39:40.971Z,101114.47
2023-05-05T23:42:13.325Z,101118.67
2023-05-05T23:45:23.276Z,101124.98
2023-05-05T23:47:53.418Z,101128.89
2023-05-05T23:51:02.861Z,101123.22
2023-05-05T23:53:32.003Z,101128.88
2023-05-05T23:56:18.506Z,101128.24
2023-05-05T23:59:29.226Z,101125.52
